Wetterdaten: Woche 07.02.11 - 13.02.11 (KW6)
Datum Zeit Temp. Innen Temp. Aussen UV X Diff Temp. Feuchte Inne Feuchte Auss Sonnenschein Luftdruck Regen ab 0,1 Wind Sonnenschein T Regendauer Windben
07.02.2011 00:00 13,7 C 8,8 C 0,0 UV-I 0,0 C 54 % 75 % 0 % 1024,0 hPa 0,0 l/m 6,6 km/h (2 Bft) 0,00 h 0,00 h 8,1 km/h (2 Bft)
07.02.2011 01:00 13,6 C 8,9 C 0,0 UV-I 0,0 C 54 % 74 % 0 % 1023,8 hPa 0,0 l/m 7,1 km/h (2 Bft) 0,00 h 0,00 h 8,1 km/h (2 Bft)
07.02.2011 02:00 13,6 C 8,7 C 0,0 UV-I 0,0 C 54 % 74 % 0 % 1023,4 hPa 0,0 l/m 6,0 km/h (2 Bft) 0,00 h 0,00 h 6,0 km/h (2 Bft)
07.02.2011 03:00 13,6 C 8,4 C 0,0 UV-I 0,0 C 54 % 75 % 0 % 1023,1 hPa 0,0 l/m 6,3 km/h (2 Bft) 0,00 h 0,00 h 8,0 km/h (2 Bft)
07.02.2011 04:00 13,6 C 8,3 C 0,0 UV-I 0,0 C 54 % 75 % 0 % 1022,8 hPa 0,0 l/m 4,8 km/h (1 Bft) 0,00 h 0,00 h 5,9 km/h (2 Bft)
07.02.2011 05:00 13,6 C 8,1 C 0,0 UV-I 0,0 C 54 % 76 % 0 % 1022,5 hPa 0,0 l/m 4,9 km/h (1 Bft) 0,00 h 0,00 h 6,4 km/h (2 Bft)
07.02.2011 06:00 13,5 C 7,8 C 0,0 UV-I 0,0 C 54 % 76 % 0 % 1022,1 hPa 0,0 l/m 5,5 km/h (1 Bft) 0,00 h 0,00 h 5,9 km/h (2 Bft)
07.02.2011 07:00 13,4 C 7,4 C 0,0 UV-I 0,0 C 53 % 76 % 0 % 1021,8 hPa 0,0 l/m 5,4 km/h (1 Bft) 0,00 h 0,00 h 6,6 km/h (2 Bft)
07.02.2011 08:00 13,4 C 6,9 C 0,0 UV-I 0,0 C 53 % 77 % 0 % 1021,0 hPa 0,0 l/m 6,3 km/h (2 Bft) 0,00 h 0,00 h 7,3 km/h (2 Bft)
07.02.2011 09:00 13,4 C 6,6 C 0,0 UV-I 1,3 C 53 % 77 % 35 % 1020,5 hPa 0,0 l/m 8,0 km/h (2 Bft) 0,37 h 0,00 h 10,1 km/h (2 Bft)
07.02.2011 10:00 13,3 C 7,1 C 0,0 UV-I 4,8 C 53 % 75 % 100 % 1019,5 hPa 0,0 l/m 10,2 km/h (2 Bft) 1,00 h 0,00 h 12,2 km/h (2 Bft)
07.02.2011 11:00 13,4 C 8,8 C 0,1 UV-I 6,0 C 53 % 70 % 100 % 1018,8 hPa 0,0 l/m 8,3 km/h (2 Bft) 1,00 h 0,00 h 9,7 km/h (2 Bft)
07.02.2011 12:00 13,7 C 10,8 C 1,2 UV-I 5,7 C 53 % 64 % 100 % 1018,0 hPa 0,0 l/m 8,0 km/h (2 Bft) 1,00 h 0,00 h 9,0 km/h (2 Bft)
07.02.2011 13:00 14,6 C 13,3 C 1,3 UV-I 4,7 C 51 % 50 % 100 % 1017,3 hPa 0,0 l/m 10,1 km/h (2 Bft) 1,00 h 0,00 h 11,9 km/h (2 Bft)
07.02.2011 14:00 16,5 C 15,4 C 1,4 UV-I 4,2 C 42 % 36 % 100 % 1017,9 hPa 0,0 l/m 12,0 km/h (2 Bft) 1,00 h 0,00 h 14,4 km/h (3 Bft)
07.02.2011 15:00 17,5 C 15,8 C 1,0 UV-I 3,4 C 38 % 32 % 94 % 1017,5 hPa 0,0 l/m 10,9 km/h (2 Bft) 1,00 h 0,00 h 13,1 km/h (3 Bft)
07.02.2011 16:00 17,7 C 14,5 C 0,1 UV-I 1,0 C 37 % 35 % 29 % 1016,5 hPa 0,0 l/m 10,0 km/h (2 Bft) 0,33 h 0,00 h 9,9 km/h (2 Bft)
07.02.2011 17:00 16,9 C 13,1 C 0,0 UV-I 0,0 C 38 % 39 % 0 % 1015,6 hPa 0,0 l/m 8,4 km/h (2 Bft) 0,00 h 0,00 h 8,9 km/h (2 Bft)
07.02.2011 18:00 16,1 C 12,0 C 0,0 UV-I 0,0 C 39 % 45 % 0 % 1015,5 hPa 0,0 l/m 8,6 km/h (2 Bft) 0,00 h 0,00 h 10,0 km/h (2 Bft)
07.02.2011 19:00 15,5 C 11,9 C 0,0 UV-I 0,0 C 41 % 51 % 0 % 1015,6 hPa 0,0 l/m 10,5 km/h (2 Bft) 0,00 h 0,00 h 10,4 km/h (2 Bft)
07.02.2011 20:00 15,3 C 11,7 C 0,0 UV-I 0,0 C 44 % 59 % 0 % 1015,5 hPa 0,0 l/m 11,3 km/h (2 Bft) 0,00 h 0,00 h 12,4 km/h (3 Bft)
07.02.2011 21:00 15,1 C 11,5 C 0,0 UV-I 0,0 C 47 % 66 % 0 % 1015,8 hPa 0,0 l/m 11,4 km/h (2 Bft) 0,00 h 0,00 h 12,4 km/h (3 Bft)
07.02.2011 22:00 15,2 C 11,2 C 0,0 UV-I 0,0 C 50 % 71 % 0 % 1016,3 hPa 0,0 l/m 7,6 km/h (2 Bft) 0,00 h 0,00 h 7,1 km/h (2 Bft)
07.02.2011 23:00 15,0 C 10,8 C 0,0 UV-I 0,0 C 52 % 75 % 0 % 1016,7 hPa 0,0 l/m 6,5 km/h (2 Bft) 0,00 h 0,00 h 8,9 km/h (2 Bft)
08.02.2011 00:00 14,9 C 9,9 C 0,0 UV-I 0,0 C 52 % 74 % 0 % 1017,9 hPa 0,0 l/m 7,7 km/h (2 Bft) 0,00 h 0,00 h 9,3 km/h (2 Bft)
08.02.2011 01:00 14,8 C 9,0 C 0,0 UV-I 0,0 C 51 % 72 % 0 % 1018,3 hPa 0,0 l/m 4,1 km/h (1 Bft) 0,00 h 0,00 h 5,2 km/h (1 Bft)
08.02.2011 02:00 14,6 C 8,3 C 0,0 UV-I 0,0 C 51 % 74 % 0 % 1018,7 hPa 0,0 l/m 3,3 km/h (1 Bft) 0,00 h 0,00 h 3,8 km/h (1 Bft)
08.02.2011 03:00 14,4 C 7,8 C 0,0 UV-I 0,0 C 51 % 75 % 0 % 1019,0 hPa 0,0 l/m 3,0 km/h (1 Bft) 0,00 h 0,00 h 3,0 km/h (1 Bft)
08.02.2011 04:00 14,4 C 7,2 C 0,0 UV-I 0,0 C 52 % 78 % 0 % 1019,3 hPa 0,0 l/m 1,1 km/h (1 Bft) 0,00 h 0,00 h 1,7 km/h (1 Bft)
08.02.2011 05:00 14,2 C 6,7 C 0,0 UV-I 0,0 C 52 % 79 % 0 % 1020,0 hPa 0,0 l/m 3,2 km/h (1 Bft) 0,00 h 0,00 h 3,6 km/h (1 Bft)
08.02.2011 06:00 14,1 C 6,0 C 0,0 UV-I 0,0 C 52 % 80 % 0 % 1020,8 hPa 0,0 l/m 1,8 km/h (1 Bft) 0,00 h 0,00 h 1,7 km/h (1 Bft)
08.02.2011 07:00 13,9 C 5,0 C 0,0 UV-I 0,0 C 52 % 82 % 0 % 1021,5 hPa 0,0 l/m 0,5 km/h (0 Bft) 0,00 h 0,00 h 1,0 km/h (0 Bft)
08.02.2011 08:00 13,7 C 4,0 C 0,0 UV-I 0,0 C 52 % 84 % 0 % 1022,1 hPa 0,0 l/m 0,0 km/h (0 Bft) 0,00 h 0,00 h 0,0 km/h (0 Bft)
08.02.2011 09:00 13,6 C 4,6 C 0,0 UV-I 2,3 C 53 % 86 % 42 % 1023,0 hPa 0,0 l/m 0,6 km/h (0 Bft) 0,43 h 0,00 h 1,6 km/h (1 Bft)
08.02.2011 10:00 13,6 C 6,5 C 0,0 UV-I 7,5 C 53 % 83 % 100 % 1023,6 hPa 0,0 l/m 3,3 km/h (1 Bft) 1,00 h 0,00 h 4,7 km/h (1 Bft)
08.02.2011 11:00 13,8 C 8,1 C 0,4 UV-I 7,8 C 52 % 77 % 100 % 1024,2 hPa 0,0 l/m 4,5 km/h (1 Bft) 1,00 h 0,00 h 5,8 km/h (2 Bft)
08.02.2011 12:00 14,0 C 9,4 C 0,1 UV-I 7,4 C 51 % 70 % 100 % 1024,7 hPa 0,0 l/m 5,1 km/h (1 Bft) 1,00 h 0,00 h 5,7 km/h (1 Bft)
08.02.2011 13:00 15,0 C 10,6 C 0,3 UV-I 6,7 C 50 % 62 % 100 % 1025,8 hPa 0,0 l/m 6,9 km/h (2 Bft) 1,00 h 0,00 h 7,2 km/h (2 Bft)
08.02.2011 14:00 16,8 C 11,4 C 0,4 UV-I 6,3 C 45 % 58 % 100 % 1027,0 hPa 0,0 l/m 6,7 km/h (2 Bft) 1,00 h 0,00 h 7,8 km/h (2 Bft)
08.02.2011 15:00 17,8 C 11,2 C 0,1 UV-I 5,3 C 42 % 55 % 100 % 1027,1 hPa 0,0 l/m 5,6 km/h (1 Bft) 1,00 h 0,00 h 6,0 km/h (2 Bft)
08.02.2011 16:00 18,0 C 9,8 C 0,0 UV-I 1,8 C 41 % 55 % 44 % 1026,6 hPa 0,0 l/m 2,4 km/h (1 Bft) 0,47 h 0,00 h 3,9 km/h (1 Bft)
08.02.2011 17:00 17,1 C 8,4 C 0,0 UV-I 0,0 C 42 % 58 % 0 % 1025,3 hPa 0,0 l/m 0,4 km/h (0 Bft) 0,00 h 0,00 h 0,1 km/h (0 Bft)
08.02.2011 18:00 15,9 C 6,0 C 0,0 UV-I 0,0 C 44 % 64 % 0 % 1025,1 hPa 0,0 l/m 0,0 km/h (0 Bft) 0,00 h 0,00 h 0,0 km/h (0 Bft)
08.02.2011 19:00 15,0 C 3,9 C 0,0 UV-I 0,0 C 45 % 71 % 0 % 1024,8 hPa 0,0 l/m 0,0 km/h (0 Bft) 0,00 h 0,00 h 0,0 km/h (0 Bft)
08.02.2011 20:00 14,4 C 2,5 C 0,0 UV-I 0,0 C 46 % 78 % 0 % 1024,6 hPa 0,0 l/m 0,0 km/h (0 Bft) 0,00 h 0,00 h 0,0 km/h (0 Bft)
08.02.2011 21:00 14,0 C 1,6 C 0,0 UV-I 0,0 C 47 % 82 % 0 % 1024,9 hPa 0,0 l/m 0,0 km/h (0 Bft) 0,00 h 0,00 h 0,0 km/h (0 Bft)
08.02.2011 22:00 13,6 C 0,7 C 0,0 UV-I 0,0 C 47 % 84 % 0 % 1024,7 hPa 0,0 l/m 0,0 km/h (0 Bft) 0,00 h 0,00 h 0,0 km/h (0 Bft)
08.02.2011 23:00 13,4 C 0,2 C 0,0 UV-I 0,0 C 48 % 86 % 0 % 1024,6 hPa 0,0 l/m 0,1 km/h (0 Bft) 0,00 h 0,00 h 0,2 km/h (0 Bft)
09.02.2011 00:00 13,2 C -0,4 C 0,0 UV-I 0,0 C 48 % 87 % 0 % 1024,2 hPa 0,0 l/m 0,0 km/h (0 Bft) 0,00 h 0,00 h 0,0 km/h (0 Bft)
09.02.2011 01:00 12,9 C -0,8 C 0,0 UV-I 0,0 C 48 % 88 % 0 % 1024,0 hPa 0,0 l/m 0,0 km/h (0 Bft) 0,00 h 0,00 h 0,0 km/h (0 Bft)
09.02.2011 02:00 12,8 C -1,2 C 0,0 UV-I 0,0 C 47 % 89 % 0 % 1023,8 hPa 0,0 l/m 0,0 km/h (0 Bft) 0,00 h 0,00 h 0,0 km/h (0 Bft)
09.02.2011 03:00 12,7 C -1,1 C 0,0 UV-I 0,0 C 47 % 90 % 0 % 1023,2 hPa 0,0 l/m 0,0 km/h (0 Bft) 0,00 h 0,00 h 0,0 km/h (0 Bft)
09.02.2011 04:00 12,5 C -1,0 C 0,0 UV-I 0,0 C 47 % 90 % 0 % 1023,1 hPa 0,0 l/m 0,5 km/h (0 Bft) 0,00 h 0,00 h 0,7 km/h (0 Bft)
09.02.2011 05:00 12,4 C -0,5 C 0,0 UV-I 0,0 C 48 % 90 % 0 % 1023,2 hPa 0,0 l/m 0,6 km/h (0 Bft) 0,00 h 0,00 h 1,0 km/h (0 Bft)
09.02.2011 06:00 12,4 C -0,5 C 0,0 UV-I 0,0 C 48 % 90 % 0 % 1022,9 hPa 0,0 l/m 1,1 km/h (0 Bft) 0,00 h 0,00 h 2,0 km/h (1 Bft)
09.02.2011 07:00 12,3 C -0,5 C 0,0 UV-I 0,0 C 48 % 91 % 0 % 1023,0 hPa 0,0 l/m 1,6 km/h (1 Bft) 0,00 h 0,00 h 2,5 km/h (1 Bft)
09.02.2011 08:00 12,3 C -0,7 C 0,0 UV-I 0,0 C 48 % 91 % 0 % 1023,2 hPa 0,0 l/m 1,6 km/h (1 Bft) 0,00 h 0,00 h 2,1 km/h (1 Bft)
09.02.2011 09:00 12,3 C 0,1 C 0,0 UV-I 1,6 C 48 % 91 % 37 % 1023,5 hPa 0,0 l/m 3,0 km/h (1 Bft) 0,37 h 0,00 h 3,5 km/h (1 Bft)
09.02.2011 10:00 12,4 C 2,5 C 0,0 UV-I 5,8 C 48 % 91 % 100 % 1023,6 hPa 0,0 l/m 4,3 km/h (1 Bft) 1,00 h 0,00 h 6,3 km/h (2 Bft)
09.02.2011 11:00 12,7 C 5,0 C 0,0 UV-I 6,0 C 49 % 87 % 100 % 1023,5 hPa 0,1 l/m 4,7 km/h (1 Bft) 1,00 h 0,00 h 5,8 km/h (2 Bft)
09.02.2011 12:00 13,2 C 7,4 C 0,0 UV-I 6,1 C 49 % 79 % 100 % 1023,1 hPa 0,0 l/m 6,9 km/h (2 Bft) 1,00 h 0,00 h 7,7 km/h (2 Bft)
09.02.2011 13:00 14,0 C 9,3 C 0,0 UV-I 5,0 C 49 % 70 % 100 % 1023,5 hPa 0,0 l/m 8,2 km/h (2 Bft) 1,00 h 0,00 h 9,7 km/h (2 Bft)
09.02.2011 14:00 15,6 C 10,6 C 0,0 UV-I 4,5 C 45 % 64 % 100 % 1024,3 hPa 0,0 l/m 7,7 km/h (2 Bft) 1,00 h 0,00 h 8,4 km/h (2 Bft)
09.02.2011 15:00 16,6 C 11,1 C 0,0 UV-I 3,6 C 43 % 60 % 94 % 1024,5 hPa 0,0 l/m 5,9 km/h (2 Bft) 0,97 h 0,00 h 5,7 km/h (1 Bft)
09.02.2011 16:00 16,6 C 10,0 C 0,0 UV-I 1,0 C 43 % 60 % 27 % 1023,2 hPa 0,0 l/m 4,6 km/h (1 Bft) 0,27 h 0,00 h 5,1 km/h (1 Bft)
09.02.2011 17:00 15,8 C 8,7 C 0,0 UV-I 0,0 C 43 % 60 % 0 % 1021,7 hPa 0,0 l/m 3,0 km/h (1 Bft) 0,00 h 0,00 h 4,1 km/h (1 Bft)
09.02.2011 18:00 14,9 C 7,8 C 0,0 UV-I 0,0 C 44 % 56 % 0 % 1020,8 hPa 0,0 l/m 4,8 km/h (1 Bft) 0,00 h 0,00 h 5,9 km/h (2 Bft)
09.02.2011 19:00 14,3 C 7,2 C 0,0 UV-I 0,0 C 44 % 59 % 0 % 1020,7 hPa 0,0 l/m 5,1 km/h (1 Bft) 0,00 h 0,00 h 5,0 km/h (1 Bft)
09.02.2011 20:00 14,0 C 6,8 C 0,0 UV-I 0,0 C 45 % 63 % 0 % 1020,8 hPa 0,0 l/m 7,4 km/h (2 Bft) 0,00 h 0,00 h 8,0 km/h (2 Bft)
09.02.2011 21:00 13,8 C 6,4 C 0,0 UV-I 0,0 C 46 % 68 % 0 % 1020,5 hPa 0,0 l/m 9,1 km/h (2 Bft) 0,00 h 0,00 h 9,9 km/h (2 Bft)
09.02.2011 22:00 13,6 C 6,3 C 0,0 UV-I 0,0 C 47 % 71 % 0 % 1020,2 hPa 0,0 l/m 8,5 km/h (2 Bft) 0,00 h 0,00 h 8,9 km/h (2 Bft)
09.02.2011 23:00 13,6 C 6,0 C 0,0 UV-I 0,0 C 48 % 74 % 0 % 1020,0 hPa 0,0 l/m 9,3 km/h (2 Bft) 0,00 h 0,00 h 9,5 km/h (2 Bft)
10.02.2011 00:00 13,5 C 5,7 C 0,0 UV-I 0,0 C 48 % 76 % 0 % 1019,9 hPa 0,0 l/m 9,7 km/h (2 Bft) 0,00 h 0,00 h 10,6 km/h (2 Bft)
10.02.2011 01:00 13,4 C 5,3 C 0,0 UV-I 0,0 C 49 % 78 % 0 % 1019,8 hPa 0,0 l/m 8,7 km/h (2 Bft) 0,00 h 0,00 h 9,5 km/h (2 Bft)
10.02.2011 02:00 13,3 C 5,1 C 0,0 UV-I 0,0 C 49 % 81 % 0 % 1019,4 hPa 0,0 l/m 8,3 km/h (2 Bft) 0,00 h 0,00 h 9,0 km/h (2 Bft)
10.02.2011 03:00 13,2 C 5,0 C 0,0 UV-I 0,0 C 50 % 82 % 0 % 1019,0 hPa 0,0 l/m 7,9 km/h (2 Bft) 0,00 h 0,00 h 9,0 km/h (2 Bft)
10.02.2011 04:00 13,2 C 5,1 C 0,0 UV-I 0,0 C 50 % 84 % 0 % 1018,7 hPa 0,0 l/m 9,0 km/h (2 Bft) 0,00 h 0,00 h 10,3 km/h (2 Bft)
10.02.2011 05:00 13,1 C 5,0 C 0,0 UV-I 0,0 C 51 % 84 % 0 % 1018,5 hPa 0,0 l/m 6,4 km/h (2 Bft) 0,00 h 0,00 h 7,1 km/h (2 Bft)
10.02.2011 06:00 13,1 C 4,8 C 0,0 UV-I 0,0 C 51 % 85 % 0 % 1018,1 hPa 0,0 l/m 4,8 km/h (1 Bft) 0,00 h 0,00 h 5,3 km/h (1 Bft)
10.02.2011 07:00 13,2 C 4,7 C 0,0 UV-I 0,0 C 51 % 85 % 0 % 1018,1 hPa 0,0 l/m 4,8 km/h (1 Bft) 0,00 h 0,00 h 5,2 km/h (1 Bft)
10.02.2011 08:00 13,2 C 4,7 C 0,0 UV-I 0,0 C 51 % 85 % 0 % 1018,2 hPa 0,0 l/m 4,5 km/h (1 Bft) 0,00 h 0,00 h 5,6 km/h (1 Bft)
10.02.2011 09:00 13,2 C 5,1 C 0,0 UV-I 0,0 C 52 % 85 % 1 % 1018,5 hPa 0,0 l/m 3,5 km/h (1 Bft) 0,00 h 0,00 h 4,2 km/h (1 Bft)
10.02.2011 10:00 13,3 C 6,3 C 0,0 UV-I 0,4 C 51 % 83 % 12 % 1018,3 hPa 0,0 l/m 2,7 km/h (1 Bft) 0,00 h 0,00 h 4,0 km/h (1 Bft)
10.02.2011 11:00 13,4 C 7,3 C 0,0 UV-I 0,3 C 52 % 81 % 8 % 1018,3 hPa 0,0 l/m 4,1 km/h (1 Bft) 0,00 h 0,00 h 5,1 km/h (1 Bft)
10.02.2011 12:00 13,5 C 7,8 C 0,0 UV-I 0,6 C 53 % 82 % 16 % 1017,8 hPa 0,0 l/m 4,5 km/h (1 Bft) 0,00 h 0,00 h 4,0 km/h (1 Bft)
10.02.2011 13:00 14,1 C 9,4 C 0,0 UV-I 3,1 C 54 % 80 % 75 % 1017,6 hPa 0,0 l/m 6,0 km/h (2 Bft) 0,47 h 0,00 h 7,3 km/h (2 Bft)
10.02.2011 14:00 15,6 C 10,9 C 0,0 UV-I 3,4 C 52 % 78 % 85 % 1018,3 hPa 0,0 l/m 6,5 km/h (2 Bft) 0,73 h 0,00 h 7,9 km/h (2 Bft)
10.02.2011 15:00 15,7 C 11,0 C 0,0 UV-I 0,3 C 51 % 76 % 9 % 1016,6 hPa 0,0 l/m 4,5 km/h (1 Bft) 0,00 h 0,00 h 5,9 km/h (2 Bft)
10.02.2011 16:00 15,1 C 10,9 C 0,0 UV-I 0,0 C 51 % 77 % 0 % 1015,6 hPa 0,3 l/m 1,8 km/h (1 Bft) 0,00 h 0,00 h 2,7 km/h (1 Bft)
10.02.2011 17:00 14,7 C 9,7 C 0,0 UV-I 0,0 C 55 % 84 % 0 % 1015,0 hPa 0,7 l/m 3,1 km/h (1 Bft) 0,00 h 0,00 h 4,4 km/h (1 Bft)
10.02.2011 18:00 14,4 C 9,2 C 0,0 UV-I 0,0 C 57 % 88 % 0 % 1014,3 hPa 0,1 l/m 3,1 km/h (1 Bft) 0,00 h 0,00 h 3,4 km/h (1 Bft)
10.02.2011 19:00 14,3 C 9,0 C 0,0 UV-I 0,0 C 59 % 90 % 0 % 1014,2 hPa 0,4 l/m 4,3 km/h (1 Bft) 0,00 h 0,00 h 4,9 km/h (1 Bft)
10.02.2011 20:00 14,2 C 9,2 C 0,0 UV-I 0,0 C 61 % 90 % 0 % 1013,4 hPa 0,3 l/m 6,1 km/h (2 Bft) 0,00 h 0,00 h 7,4 km/h (2 Bft)
10.02.2011 21:00 14,2 C 9,7 C 0,0 UV-I 0,0 C 63 % 91 % 0 % 1012,9 hPa 0,1 l/m 8,9 km/h (2 Bft) 0,00 h 0,00 h 11,1 km/h (2 Bft)
10.02.2011 22:00 14,2 C 10,0 C 0,0 UV-I 0,0 C 64 % 92 % 0 % 1012,7 hPa 1,3 l/m 9,0 km/h (2 Bft) 0,00 h 0,00 h 10,6 km/h (2 Bft)
10.02.2011 23:00 14,2 C 10,2 C 0,0 UV-I 0,0 C 66 % 92 % 0 % 1012,2 hPa 0,5 l/m 9,2 km/h (2 Bft) 0,00 h 0,00 h 9,8 km/h (2 Bft)
11.02.2011 00:00 14,2 C 10,5 C 0,0 UV-I 0,0 C 67 % 92 % 0 % 1012,0 hPa 0,7 l/m 11,9 km/h (2 Bft) 0,00 h 0,00 h 13,9 km/h (3 Bft)
11.02.2011 01:00 14,3 C 10,7 C 0,0 UV-I 0,0 C 67 % 92 % 0 % 1011,9 hPa 0,3 l/m 9,2 km/h (2 Bft) 0,00 h 0,00 h 9,7 km/h (2 Bft)
11.02.2011 02:00 14,2 C 10,8 C 0,0 UV-I 0,0 C 68 % 92 % 0 % 1011,5 hPa 0,3 l/m 8,7 km/h (2 Bft) 0,00 h 0,00 h 8,8 km/h (2 Bft)
11.02.2011 03:00 14,3 C 10,8 C 0,0 UV-I 0,0 C 68 % 92 % 0 % 1011,2 hPa 0,3 l/m 7,7 km/h (2 Bft) 0,00 h 0,00 h 8,0 km/h (2 Bft)
11.02.2011 04:00 14,3 C 10,6 C 0,0 UV-I 0,0 C 68 % 92 % 0 % 1010,7 hPa 0,3 l/m 4,0 km/h (1 Bft) 0,00 h 0,00 h 4,7 km/h (1 Bft)
11.02.2011 05:00 14,3 C 10,6 C 0,0 UV-I 0,0 C 68 % 93 % 0 % 1010,7 hPa 1,6 l/m 3,2 km/h (1 Bft) 0,00 h 0,00 h 3,3 km/h (1 Bft)
11.02.2011 06:00 14,4 C 10,5 C 0,0 UV-I 0,0 C 68 % 93 % 0 % 1010,7 hPa 0,0 l/m 3,8 km/h (1 Bft) 0,00 h 0,00 h 5,1 km/h (1 Bft)
11.02.2011 07:00 14,4 C 10,4 C 0,0 UV-I 0,0 C 67 % 91 % 0 % 1010,6 hPa 0,0 l/m 9,0 km/h (2 Bft) 0,00 h 0,00 h 9,3 km/h (2 Bft)
11.02.2011 08:00 14,3 C 9,9 C 0,0 UV-I 0,0 C 66 % 91 % 0 % 1011,4 hPa 0,0 l/m 3,9 km/h (1 Bft) 0,00 h 0,00 h 4,5 km/h (1 Bft)
11.02.2011 09:00 14,4 C 9,8 C 0,0 UV-I 0,0 C 66 % 91 % 0 % 1011,7 hPa 0,0 l/m 3,1 km/h (1 Bft) 0,00 h 0,00 h 4,0 km/h (1 Bft)
11.02.2011 10:00 14,4 C 9,8 C 0,0 UV-I 0,0 C 65 % 91 % 1 % 1012,1 hPa 0,0 l/m 4,2 km/h (1 Bft) 0,00 h 0,00 h 5,6 km/h (1 Bft)
11.02.2011 11:00 14,6 C 10,2 C 0,0 UV-I 0,8 C 65 % 91 % 23 % 1012,5 hPa 0,0 l/m 4,5 km/h (1 Bft) 0,00 h 0,00 h 4,9 km/h (1 Bft)
11.02.2011 12:00 14,8 C 10,7 C 0,0 UV-I 0,6 C 65 % 90 % 16 % 1012,6 hPa 0,0 l/m 7,1 km/h (2 Bft) 0,00 h 0,00 h 9,1 km/h (2 Bft)
11.02.2011 13:00 15,0 C 10,8 C 0,0 UV-I 0,4 C 64 % 89 % 11 % 1012,8 hPa 0,0 l/m 6,1 km/h (2 Bft) 0,00 h 0,00 h 6,2 km/h (2 Bft)
11.02.2011 14:00 15,0 C 10,9 C 0,0 UV-I 0,4 C 64 % 87 % 13 % 1013,1 hPa 0,0 l/m 7,0 km/h (2 Bft) 0,00 h 0,00 h 8,3 km/h (2 Bft)
11.02.2011 15:00 15,0 C 10,5 C 0,0 UV-I 0,0 C 63 % 88 % 0 % 1013,3 hPa 0,1 l/m 4,3 km/h (1 Bft) 0,00 h 0,00 h 5,6 km/h (1 Bft)
11.02.2011 16:00 14,9 C 9,9 C 0,0 UV-I 0,0 C 64 % 91 % 0 % 1013,4 hPa 0,7 l/m 0,8 km/h (0 Bft) 0,00 h 0,00 h 1,2 km/h (1 Bft)
11.02.2011 17:00 14,8 C 9,5 C 0,0 UV-I 0,0 C 64 % 92 % 0 % 1013,5 hPa 1,4 l/m 0,1 km/h (0 Bft) 0,00 h 0,00 h 0,3 km/h (0 Bft)
11.02.2011 18:00 14,8 C 9,5 C 0,0 UV-I 0,0 C 65 % 92 % 0 % 1013,5 hPa 1,7 l/m 0,1 km/h (0 Bft) 0,00 h 0,00 h 0,2 km/h (0 Bft)
11.02.2011 19:00 14,7 C 9,3 C 0,0 UV-I 0,0 C 65 % 93 % 0 % 1013,7 hPa 1,2 l/m 0,0 km/h (0 Bft) 0,00 h 0,00 h 0,1 km/h (0 Bft)
11.02.2011 20:00 14,6 C 9,5 C 0,0 UV-I 0,0 C 65 % 93 % 0 % 1014,3 hPa 0,5 l/m 1,2 km/h (1 Bft) 0,00 h 0,00 h 2,1 km/h (1 Bft)
11.02.2011 21:00 14,7 C 9,5 C 0,0 UV-I 0,0 C 65 % 94 % 0 % 1014,6 hPa 0,1 l/m 2,9 km/h (1 Bft) 0,00 h 0,00 h 2,8 km/h (1 Bft)
11.02.2011 22:00 14,8 C 9,2 C 0,0 UV-I 0,0 C 65 % 94 % 0 % 1014,9 hPa 1,6 l/m 0,5 km/h (0 Bft) 0,00 h 0,00 h 0,8 km/h (0 Bft)
11.02.2011 23:00 14,8 C 8,6 C 0,0 UV-I 0,0 C 65 % 94 % 0 % 1015,2 hPa 1,5 l/m 3,9 km/h (1 Bft) 0,00 h 0,00 h 4,3 km/h (1 Bft)
12.02.2011 00:00 14,7 C 7,2 C 0,0 UV-I 0,0 C 65 % 93 % 0 % 1015,3 hPa 0,8 l/m 3,5 km/h (1 Bft) 0,00 h 0,00 h 6,2 km/h (2 Bft)
12.02.2011 01:00 14,5 C 5,8 C 0,0 UV-I 0,0 C 64 % 93 % 0 % 1015,5 hPa 0,7 l/m 3,6 km/h (1 Bft) 0,00 h 0,00 h 4,0 km/h (1 Bft)
12.02.2011 02:00 14,3 C 5,5 C 0,0 UV-I 0,0 C 63 % 94 % 0 % 1015,6 hPa 1,1 l/m 3,1 km/h (1 Bft) 0,00 h 0,00 h 3,8 km/h (1 Bft)
12.02.2011 03:00 14,2 C 5,5 C 0,0 UV-I 0,0 C 63 % 94 % 0 % 1015,3 hPa 0,5 l/m 4,6 km/h (1 Bft) 0,00 h 0,00 h 5,7 km/h (1 Bft)
12.02.2011 04:00 14,1 C 5,5 C 0,0 UV-I 0,0 C 63 % 94 % 0 % 1015,0 hPa 0,4 l/m 3,6 km/h (1 Bft) 0,00 h 0,00 h 4,6 km/h (1 Bft)
12.02.2011 05:00 14,0 C 5,5 C 0,0 UV-I 0,0 C 62 % 94 % 0 % 1014,4 hPa 0,8 l/m 4,1 km/h (1 Bft) 0,00 h 0,00 h 4,5 km/h (1 Bft)
12.02.2011 06:00 13,9 C 5,6 C 0,0 UV-I 0,0 C 62 % 95 % 0 % 1014,3 hPa 0,5 l/m 4,2 km/h (1 Bft) 0,00 h 0,00 h 4,4 km/h (1 Bft)
12.02.2011 07:00 14,0 C 5,9 C 0,0 UV-I 0,0 C 63 % 95 % 0 % 1014,1 hPa 0,3 l/m 1,2 km/h (1 Bft) 0,00 h 0,00 h 1,5 km/h (1 Bft)
12.02.2011 08:00 14,0 C 6,2 C 0,0 UV-I 0,0 C 63 % 95 % 0 % 1014,0 hPa 0,9 l/m 0,3 km/h (0 Bft) 0,00 h 0,00 h 0,5 km/h (0 Bft)
12.02.2011 09:00 14,1 C 6,4 C 0,0 UV-I 0,0 C 63 % 95 % 0 % 1014,3 hPa 0,4 l/m 1,1 km/h (1 Bft) 0,00 h 0,00 h 1,5 km/h (1 Bft)
12.02.2011 10:00 14,2 C 7,5 C 0,0 UV-I 0,0 C 63 % 95 % 1 % 1013,9 hPa 0,1 l/m 3,6 km/h (1 Bft) 0,00 h 0,00 h 5,0 km/h (1 Bft)
12.02.2011 11:00 14,4 C 7,7 C 0,0 UV-I 0,2 C 63 % 95 % 7 % 1014,1 hPa 0,0 l/m 7,2 km/h (2 Bft) 0,00 h 0,00 h 9,1 km/h (2 Bft)
12.02.2011 12:00 14,6 C 8,0 C 0,0 UV-I 0,5 C 63 % 94 % 13 % 1013,8 hPa 0,0 l/m 10,7 km/h (2 Bft) 0,00 h 0,00 h 13,0 km/h (3 Bft)
12.02.2011 13:00 14,8 C 8,5 C 0,0 UV-I 0,4 C 62 % 94 % 11 % 1013,3 hPa 0,0 l/m 13,6 km/h (3 Bft) 0,00 h 0,00 h 16,8 km/h (3 Bft)
12.02.2011 14:00 15,9 C 10,0 C 0,0 UV-I 3,3 C 59 % 91 % 91 % 1013,5 hPa 0,0 l/m 14,3 km/h (3 Bft) 0,87 h 0,00 h 15,4 km/h (3 Bft)
12.02.2011 15:00 17,1 C 9,9 C 0,0 UV-I 0,9 C 56 % 88 % 25 % 1013,6 hPa 0,0 l/m 17,5 km/h (3 Bft) 0,00 h 0,00 h 21,8 km/h (4 Bft)
12.02.2011 16:00 16,9 C 8,9 C 0,0 UV-I 0,0 C 55 % 88 % 0 % 1012,7 hPa 0,0 l/m 14,8 km/h (3 Bft) 0,00 h 0,00 h 13,9 km/h (3 Bft)
12.02.2011 17:00 15,8 C 8,5 C 0,0 UV-I 0,0 C 56 % 89 % 0 % 1012,2 hPa 0,0 l/m 10,1 km/h (2 Bft) 0,00 h 0,00 h 11,3 km/h (2 Bft)
12.02.2011 18:00 15,2 C 8,3 C 0,0 UV-I 0,0 C 59 % 89 % 0 % 1012,1 hPa 0,0 l/m 6,3 km/h (2 Bft) 0,00 h 0,00 h 7,1 km/h (2 Bft)
12.02.2011 19:00 14,9 C 8,8 C 0,0 UV-I 0,0 C 60 % 91 % 0 % 1012,2 hPa 0,3 l/m 2,6 km/h (1 Bft) 0,00 h 0,00 h 3,4 km/h (1 Bft)
12.02.2011 20:00 14,8 C 9,1 C 0,0 UV-I 0,0 C 62 % 92 % 0 % 1012,8 hPa 0,1 l/m 3,7 km/h (1 Bft) 0,00 h 0,00 h 4,7 km/h (1 Bft)
12.02.2011 21:00 14,8 C 8,9 C 0,0 UV-I 0,0 C 63 % 92 % 0 % 1012,9 hPa 0,0 l/m 1,4 km/h (1 Bft) 0,00 h 0,00 h 1,1 km/h (1 Bft)
12.02.2011 22:00 14,8 C 8,7 C 0,0 UV-I 0,0 C 63 % 92 % 0 % 1012,9 hPa 0,1 l/m 0,4 km/h (0 Bft) 0,00 h 0,00 h 0,6 km/h (0 Bft)
12.02.2011 23:00 14,7 C 8,7 C 0,0 UV-I 0,0 C 63 % 92 % 0 % 1013,1 hPa 0,1 l/m 4,2 km/h (1 Bft) 0,00 h 0,00 h 5,9 km/h (2 Bft)
13.02.2011 00:00 14,6 C 8,3 C 0,0 UV-I 0,0 C 62 % 92 % 0 % 1012,8 hPa 0,2 l/m 3,5 km/h (1 Bft) 0,00 h 0,00 h 4,6 km/h (1 Bft)
13.02.2011 01:00 14,5 C 7,8 C 0,0 UV-I 0,0 C 62 % 92 % 0 % 1012,6 hPa 0,1 l/m 0,9 km/h (0 Bft) 0,00 h 0,00 h 1,4 km/h (1 Bft)
13.02.2011 02:00 14,4 C 7,6 C 0,0 UV-I 0,0 C 62 % 92 % 0 % 1012,6 hPa 0,0 l/m 2,4 km/h (1 Bft) 0,00 h 0,00 h 3,8 km/h (1 Bft)
13.02.2011 03:00 14,4 C 7,4 C 0,0 UV-I 0,0 C 60 % 90 % 0 % 1012,7 hPa 0,0 l/m 3,0 km/h (1 Bft) 0,00 h 0,00 h 4,4 km/h (1 Bft)
13.02.2011 04:00 14,3 C 6,5 C 0,0 UV-I 0,0 C 60 % 90 % 0 % 1012,5 hPa 0,0 l/m 1,5 km/h (1 Bft) 0,00 h 0,00 h 1,9 km/h (1 Bft)
13.02.2011 05:00 14,1 C 5,7 C 0,0 UV-I 0,0 C 59 % 91 % 0 % 1012,6 hPa 0,0 l/m 1,3 km/h (1 Bft) 0,00 h 0,00 h 1,9 km/h (1 Bft)
13.02.2011 06:00 14,0 C 5,1 C 0,0 UV-I 0,0 C 59 % 91 % 0 % 1012,2 hPa 0,0 l/m 0,7 km/h (0 Bft) 0,00 h 0,00 h 0,8 km/h (0 Bft)
13.02.2011 07:00 13,8 C 4,2 C 0,0 UV-I 0,0 C 59 % 92 % 0 % 1012,3 hPa 0,0 l/m 0,1 km/h (0 Bft) 0,00 h 0,00 h 0,2 km/h (0 Bft)
13.02.2011 08:00 13,7 C 3,6 C 0,0 UV-I 0,0 C 58 % 92 % 0 % 1012,2 hPa 0,0 l/m 0,0 km/h (0 Bft) 0,00 h 0,00 h 0,2 km/h (0 Bft)
13.02.2011 09:00 13,7 C 4,5 C 0,0 UV-I 2,0 C 58 % 93 % 47 % 1012,3 hPa 0,0 l/m 1,3 km/h (1 Bft) 0,50 h 0,00 h 1,9 km/h (1 Bft)
13.02.2011 10:00 13,8 C 6,7 C 0,0 UV-I 5,8 C 58 % 92 % 100 % 1012,0 hPa 0,0 l/m 3,5 km/h (1 Bft) 1,00 h 0,00 h 4,7 km/h (1 Bft)
13.02.2011 11:00 14,1 C 8,1 C 0,0 UV-I 3,2 C 58 % 88 % 83 % 1011,7 hPa 0,0 l/m 7,8 km/h (2 Bft) 0,43 h 0,00 h 8,4 km/h (2 Bft)
13.02.2011 12:00 14,6 C 8,5 C 0,0 UV-I 1,5 C 57 % 84 % 42 % 1011,4 hPa 0,0 l/m 8,7 km/h (2 Bft) 0,00 h 0,00 h 9,5 km/h (2 Bft)
13.02.2011 13:00 15,1 C 9,4 C 0,0 UV-I 2,2 C 56 % 81 % 62 % 1011,2 hPa 0,0 l/m 8,0 km/h (2 Bft) 0,10 h 0,00 h 9,3 km/h (2 Bft)
13.02.2011 14:00 16,2 C 10,7 C 0,0 UV-I 3,2 C 53 % 74 % 86 % 1011,7 hPa 0,0 l/m 10,0 km/h (2 Bft) 0,67 h 0,00 h 13,2 km/h (3 Bft)
13.02.2011 15:00 16,8 C 10,3 C 0,0 UV-I 1,1 C 51 % 72 % 33 % 1010,9 hPa 0,0 l/m 9,4 km/h (2 Bft) 0,13 h 0,00 h 10,3 km/h (2 Bft)
13.02.2011 16:00 16,7 C 9,6 C 0,0 UV-I 0,0 C 51 % 74 % 1 % 1009,8 hPa 0,0 l/m 8,4 km/h (2 Bft) 0,00 h 0,00 h 8,9 km/h (2 Bft)
13.02.2011 17:00 16,0 C 8,9 C 0,0 UV-I 0,0 C 52 % 77 % 0 % 1008,8 hPa 0,0 l/m 7,3 km/h (2 Bft) 0,00 h 0,00 h 7,8 km/h (2 Bft)
13.02.2011 18:00 15,3 C 8,3 C 0,0 UV-I 0,0 C 54 % 79 % 0 % 1008,4 hPa 0,0 l/m 5,2 km/h (1 Bft) 0,00 h 0,00 h 6,0 km/h (2 Bft)
13.02.2011 19:00 15,0 C 7,9 C 0,0 UV-I 0,0 C 55 % 81 % 0 % 1007,9 hPa 0,0 l/m 5,2 km/h (1 Bft) 0,00 h 0,00 h 6,3 km/h (2 Bft)
13.02.2011 20:00 14,7 C 7,6 C 0,0 UV-I 0,0 C 55 % 81 % 0 % 1007,7 hPa 0,0 l/m 6,9 km/h (2 Bft) 0,00 h 0,00 h 7,4 km/h (2 Bft)
13.02.2011 21:00 14,6 C 7,2 C 0,0 UV-I 0,0 C 56 % 82 % 0 % 1007,4 hPa 0,0 l/m 7,2 km/h (2 Bft) 0,00 h 0,00 h 7,8 km/h (2 Bft)
13.02.2011 22:00 14,4 C 7,0 C 0,0 UV-I 0,0 C 56 % 84 % 0 % 1007,4 hPa 0,0 l/m 8,5 km/h (2 Bft) 0,00 h 0,00 h 10,4 km/h (2 Bft)
13.02.2011 23:00 14,4 C 6,8 C 0,0 UV-I 0,0 C 56 % 84 % 0 % 1007,2 hPa 0,0 l/m 10,2 km/h (2 Bft) 0,00 h 0,00 h 12,0 km/h (2 Bft)
Min-Datum _ 09.02.11 09.02.11 07.02.11 07.02.11 07.02.11 07.02.11 07.02.11 13.02.11 - 08.02.11 - - 07.02.11
_ Min-Zeit 07:18 02:06 00:00 00:00 15:50 15:22 00:00 21:46 - 07:28 - - 00:28
Minimum _ 12,2 C -1,3 C 0,0 UV-I 0,0 C 37 % 31 % 0 % 1007,1 hPa - 0,0 km/h (0 Bft) - - 0,0 km/h (0 Bft)
Max-Datum _ 08.02.11 07.02.11 07.02.11 08.02.11 11.02.11 12.02.11 07.02.11 08.02.11 11.02.11 12.02.11 07.02.11 07.02.11 12.02.11
_ Max-Zeit 16:08 15:06 13:50 11:02 02:12 06:07 09:46 13:46 18:44 15:48 09:38 00:00 15:44
Maximum _ 18,2 C 16,0 C 1,6 UV-I 8,1 C 68 % 95 % 100 % 1027,4 hPa 1,7 l/m 20,1 km/h
N-NO (4 Bft)
0,03 h 0,00 h 42,2 km/h
N-NO (6 Bft)
Durchschnitt _ 14,4 C 7,7 C 0,0 UV-I 0,9 C 55 % 81 % 17 % 1017,0 hPa #23,1 l/m 5,1 km/h (1 Bft) #25:06 h #0 min. 6,0 km/h (2 Bft)
© 2012 W. Hausmann